Pilot No. 4 — WDA5463 — position and weather

sailwx.info

Track history (hours):
 
Tides and Currents Weather Stations Pressure Air Temp Water Temp Dewpoint Dewpoint Depression Visibility Wind Speed Wind Dir Waves Ship Positions

Pilot No. 4

Owner: P E P Inc, FORT LAUDERDALE, FL. More information available from US FCC via Universal Licensing System and Coast Guard Vessel Documentation Center.

Last reported at 2015-Jul-05 18:33 UTC. Time now 2015-Jul-05 19:25 UTC.
Position N 26°06' W 080°05'.

MMSI: 495270931.

Date/timePositionNaut miles runAvg speedWind from/ knotsBaromVisibWave heightAir tempDewpointWater temp
2015-Jul-05 18:33N 26°06' W 080°05'2 0.4
2015-Jul-05 12:32N 26°06' W 080°07'0 0.0
2015-Jul-04 03:27N 26°06' W 080°07'0 0.4
2015-Jul-04 02:34N 26°06' W 080°07'0 0.5
2015-Jul-04 01:33N 26°05' W 080°07'0 0.5
2015-Jul-04 00:33N 26°06' W 080°07'1 0.2
2015-Jul-03 20:05N 26°06' W 080°07'2 3.9
2015-Jul-03 19:33N 26°06' W 080°05'2 1.7
2015-Jul-03 18:33N 26°06' W 080°07'0 0.2
2015-Jul-03 17:33N 26°06' W 080°07'4 3.7
2015-Jul-03 16:33N 26°06' W 080°03'4 3.7
2015-Jul-03 15:33N 26°06' W 080°07'1 1.3
2015-Jul-03 14:33N 26°04' W 080°07'2 1.2
2015-Jul-03 13:06N 26°06' W 080°07'0 0.8
2015-Jul-03 12:33N 26°06' W 080°07'0 0.1
2015-Jul-03 11:33N 26°06' W 080°07'1 0.1
2015-Jul-02 17:33N 26°06' W 080°06'1 1.5
2015-Jul-02 16:33N 26°06' W 080°04'3 1.0
2015-Jul-02 13:33N 26°06' W 080°07'1 0.6
2015-Jul-02 12:33N 26°06' W 080°07'0 0.4
2015-Jul-02 11:33N 26°06' W 080°07'0 0.0
2015-Jul-02 00:21N 26°06' W 080°07'0 0.3
2015-Jul-01 23:33N 26°06' W 080°07'3 3.3
2015-Jul-01 22:33N 26°07' W 080°04'3 2.7
2015-Jul-01 21:33N 26°06' W 080°06'1 0.0
2015-Jun-30 00:33N 26°06' W 080°07'3 3.1
2015-Jun-29 23:34N 26°06' W 080°04'1 1.3
2015-Jun-29 22:34N 26°06' W 080°05'2 1.5
2015-Jun-29 21:33N 26°05' W 080°07'0 0.1
2015-Jun-29 20:33N 26°05' W 080°07'3 2.6
2015-Jun-29 19:33N 26°06' W 080°04'1 0.7
2015-Jun-29 18:33N 26°06' W 080°05'2 1.8
2015-Jun-29 17:33N 26°05' W 080°07'0 0.5
2015-Jun-29 16:33N 26°06' W 080°07'0 0.5
2015-Jun-29 15:33N 26°06' W 080°07'1 1.4
2015-Jun-29 14:33N 26°04' W 080°07'1 1.2
2015-Jun-29 13:33N 26°06' W 080°07'3 3.4
2015-Jun-29 12:33N 26°06' W 080°03'3 0.1
2015-Jun-27 22:24N 26°06' W 080°07'1 1.6
2015-Jun-27 21:33N 26°06' W 080°06'  
Track history (hours):
 
Tides and Currents Weather Stations Pressure Air Temp Water Temp Dewpoint Dewpoint Depression Visibility Wind Speed Wind Dir Waves Ship Positions

Pilot No. 4

Owner: P E P Inc, FORT LAUDERDALE, FL. More information available from US FCC via Universal Licensing System and Coast Guard Vessel Documentation Center.

Last reported at 2015-Jul-05 18:33 UTC. Time now 2015-Jul-05 19:25 UTC.
Position N 26°06' W 080°05'.

MMSI: 495270931.

Date/timePositionNaut miles runAvg speedWind from/ knotsBaromVisibWave heightAir tempDewpointWater temp
2015-Jul-05 18:33N 26°06' W 080°05'2 0.4
2015-Jul-05 12:32N 26°06' W 080°07'0 0.0
2015-Jul-04 03:27N 26°06' W 080°07'0 0.4
2015-Jul-04 02:34N 26°06' W 080°07'0 0.5
2015-Jul-04 01:33N 26°05' W 080°07'0 0.5
2015-Jul-04 00:33N 26°06' W 080°07'1 0.2
2015-Jul-03 20:05N 26°06' W 080°07'2 3.9
2015-Jul-03 19:33N 26°06' W 080°05'2 1.7
2015-Jul-03 18:33N 26°06' W 080°07'0 0.2
2015-Jul-03 17:33N 26°06' W 080°07'4 3.7
2015-Jul-03 16:33N 26°06' W 080°03'4 3.7
2015-Jul-03 15:33N 26°06' W 080°07'1 1.3
2015-Jul-03 14:33N 26°04' W 080°07'2 1.2
2015-Jul-03 13:06N 26°06' W 080°07'0 0.8
2015-Jul-03 12:33N 26°06' W 080°07'0 0.1
2015-Jul-03 11:33N 26°06' W 080°07'1 0.1
2015-Jul-02 17:33N 26°06' W 080°06'1 1.5
2015-Jul-02 16:33N 26°06' W 080°04'3 1.0
2015-Jul-02 13:33N 26°06' W 080°07'1 0.6
2015-Jul-02 12:33N 26°06' W 080°07'0 0.4
2015-Jul-02 11:33N 26°06' W 080°07'0 0.0
2015-Jul-02 00:21N 26°06' W 080°07'0 0.3
2015-Jul-01 23:33N 26°06' W 080°07'3 3.3
2015-Jul-01 22:33N 26°07' W 080°04'3 2.7
2015-Jul-01 21:33N 26°06' W 080°06'1 0.0
2015-Jun-30 00:33N 26°06' W 080°07'3 3.1
2015-Jun-29 23:34N 26°06' W 080°04'1 1.3
2015-Jun-29 22:34N 26°06' W 080°05'2 1.5
2015-Jun-29 21:33N 26°05' W 080°07'0 0.1
2015-Jun-29 20:33N 26°05' W 080°07'3 2.6
2015-Jun-29 19:33N 26°06' W 080°04'1 0.7
2015-Jun-29 18:33N 26°06' W 080°05'2 1.8
2015-Jun-29 17:33N 26°05' W 080°07'0 0.5
2015-Jun-29 16:33N 26°06' W 080°07'0 0.5
2015-Jun-29 15:33N 26°06' W 080°07'1 1.4
2015-Jun-29 14:33N 26°04' W 080°07'1 1.2
2015-Jun-29 13:33N 26°06' W 080°07'3 3.4
2015-Jun-29 12:33N 26°06' W 080°03'3 0.1
2015-Jun-27 22:24N 26°06' W 080°07'1 1.6
2015-Jun-27 21:33N 26°06' W 080°06'  

Dump ship's entire track history